sensor_id;sensor_type;location;lat;lon;timestamp;pressure;altitude;pressure_sealevel;temperature;humidity
18509;BME280;9383;50.928;12.116;2023-03-25T00:00:24;97805.72;;;6.97;100.00
18509;BME280;9383;50.928;12.116;2023-03-25T00:02:51;97806.88;;;6.89;100.00
18509;BME280;9383;50.928;12.116;2023-03-25T00:05:19;97813.22;;;6.84;100.00
18509;BME280;9383;50.928;12.116;2023-03-25T00:07:50;97810.78;;;6.79;100.00
18509;BME280;9383;50.928;12.116;2023-03-25T00:10:17;97812.66;;;6.75;100.00
18509;BME280;9383;50.928;12.116;2023-03-25T00:12:43;97820.56;;;6.75;100.00
18509;BME280;9383;50.928;12.116;2023-03-25T00:15:11;97811.69;;;6.78;100.00
18509;BME280;9383;50.928;12.116;2023-03-25T00:17:38;97814.28;;;6.80;100.00
18509;BME280;9383;50.928;12.116;2023-03-25T00:20:06;97816.00;;;6.81;100.00
18509;BME280;9383;50.928;12.116;2023-03-25T00:22:37;97811.69;;;6.78;100.00
18509;BME280;9383;50.928;12.116;2023-03-25T00:25:11;97808.25;;;6.76;100.00
18509;BME280;9383;50.928;12.116;2023-03-25T00:27:42;97802.25;;;6.72;100.00
18509;BME280;9383;50.928;12.116;2023-03-25T00:30:10;97801.50;;;6.69;100.00
18509;BME280;9383;50.928;12.116;2023-03-25T00:32:36;97799.91;;;6.65;100.00
18509;BME280;9383;50.928;12.116;2023-03-25T00:35:05;97801.75;;;6.63;100.00
18509;BME280;9383;50.928;12.116;2023-03-25T00:37:33;97793.16;;;6.57;100.00
18509;BME280;9383;50.928;12.116;2023-03-25T00:40:00;97801.16;;;6.54;100.00
18509;BME280;9383;50.928;12.116;2023-03-25T00:42:26;97791.66;;;6.50;100.00
18509;BME280;9383;50.928;12.116;2023-03-25T00:44:53;97799.59;;;6.48;100.00
18509;BME280;9383;50.928;12.116;2023-03-25T00:47:20;97789.16;;;6.47;100.00
18509;BME280;9383;50.928;12.116;2023-03-25T00:49:48;97793.50;;;6.48;100.00
18509;BME280;9383;50.928;12.116;2023-03-25T00:52:15;97791.72;;;6.48;100.00
18509;BME280;9383;50.928;12.116;2023-03-25T00:54:41;97794.34;;;6.48;100.00
18509;BME280;9383;50.928;12.116;2023-03-25T00:57:08;97784.69;;;6.49;100.00
18509;BME280;9383;50.928;12.116;2023-03-25T00:59:35;97788.16;;;6.50;100.00
18509;BME280;9383;50.928;12.116;2023-03-25T01:02:01;97783.75;;;6.50;100.00
18509;BME280;9383;50.928;12.116;2023-03-25T01:04:29;97773.22;;;6.50;100.00
18509;BME280;9383;50.928;12.116;2023-03-25T01:06:55;97773.22;;;6.50;100.00
18509;BME280;9383;50.928;12.116;2023-03-25T01:09:21;97769.69;;;6.51;100.00
18509;BME280;9383;50.928;12.116;2023-03-25T01:11:49;97770.47;;;6.53;100.00
18509;BME280;9383;50.928;12.116;2023-03-25T01:14:18;97763.38;;;6.55;100.00
18509;BME280;9383;50.928;12.116;2023-03-25T01:16:45;97765.00;;;6.59;100.00
18509;BME280;9383;50.928;12.116;2023-03-25T01:19:12;97756.00;;;6.65;100.00
18509;BME280;9383;50.928;12.116;2023-03-25T01:21:39;97745.84;;;6.78;100.00
18509;BME280;9383;50.928;12.116;2023-03-25T01:24:07;97731.56;;;6.84;100.00
18509;BME280;9383;50.928;12.116;2023-03-25T01:26:37;97729.44;;;6.94;100.00
18509;BME280;9383;50.928;12.116;2023-03-25T01:29:03;97735.38;;;6.99;100.00
18509;BME280;9383;50.928;12.116;2023-03-25T01:31:29;97749.22;;;7.04;100.00
18509;BME280;9383;50.928;12.116;2023-03-25T01:33:57;97742.94;;;7.08;100.00
18509;BME280;9383;50.928;12.116;2023-03-25T01:36:25;97745.06;;;7.21;100.00
18509;BME280;9383;50.928;12.116;2023-03-25T01:38:55;97739.41;;;7.30;100.00
18509;BME280;9383;50.928;12.116;2023-03-25T01:41:24;97730.38;;;7.36;100.00
18509;BME280;9383;50.928;12.116;2023-03-25T01:46:27;97728.09;;;7.49;100.00
18509;BME280;9383;50.928;12.116;2023-03-25T01:48:54;97726.13;;;7.54;100.00
18509;BME280;9383;50.928;12.116;2023-03-25T01:51:25;97723.28;;;7.58;100.00
18509;BME280;9383;50.928;12.116;2023-03-25T01:53:52;97717.88;;;7.62;100.00
18509;BME280;9383;50.928;12.116;2023-03-25T01:56:24;97707.00;;;7.69;100.00
18509;BME280;9383;50.928;12.116;2023-03-25T01:58:52;97700.69;;;7.73;100.00
18509;BME280;9383;50.928;12.116;2023-03-25T02:01:19;97700.50;;;7.78;100.00
18509;BME280;9383;50.928;12.116;2023-03-25T02:03:49;97691.44;;;7.84;100.00
18509;BME280;9383;50.928;12.116;2023-03-25T02:06:24;97686.09;;;7.85;100.00
18509;BME280;9383;50.928;12.116;2023-03-25T02:08:55;97691.16;;;7.90;100.00
18509;BME280;9383;50.928;12.116;2023-03-25T02:11:23;97691.94;;;7.92;100.00
18509;BME280;9383;50.928;12.116;2023-03-25T02:13:56;97694.44;;;7.95;100.00
18509;BME280;9383;50.928;12.116;2023-03-25T02:17:11;97681.03;;;8.00;100.00
18509;BME280;9383;50.928;12.116;2023-03-25T02:20:09;97671.38;;;8.00;100.00
18509;BME280;9383;50.928;12.116;2023-03-25T02:25:35;97682.63;;;8.04;100.00
18509;BME280;9383;50.928;12.116;2023-03-25T02:28:33;97665.94;;;8.03;100.00
18509;BME280;9383;50.928;12.116;2023-03-25T02:34:23;97678.06;;;8.08;100.00
18509;BME280;9383;50.928;12.116;2023-03-25T02:39:56;97679.75;;;8.09;100.00
18509;BME280;9383;50.928;12.116;2023-03-25T02:42:54;97682.34;;;8.10;100.00
18509;BME280;9383;50.928;12.116;2023-03-25T02:45:32;97679.72;;;8.10;100.00
18509;BME280;9383;50.928;12.116;2023-03-25T02:48:03;97686.63;;;8.13;100.00
18509;BME280;9383;50.928;12.116;2023-03-25T02:50:46;97691.00;;;8.14;100.00
18509;BME280;9383;50.928;12.116;2023-03-25T02:53:21;97679.44;;;8.16;100.00
18509;BME280;9383;50.928;12.116;2023-03-25T02:55:50;97679.22;;;8.21;100.00
18509;BME280;9383;50.928;12.116;2023-03-25T02:58:19;97681.78;;;8.23;100.00
18509;BME280;9383;50.928;12.116;2023-03-25T03:00:48;97693.00;;;8.28;100.00
18509;BME280;9383;50.928;12.116;2023-03-25T03:03:15;97691.16;;;8.30;100.00
18509;BME280;9383;50.928;12.116;2023-03-25T03:05:44;97692.78;;;8.33;100.00
18509;BME280;9383;50.928;12.116;2023-03-25T03:08:25;97683.03;;;8.35;100.00
18509;BME280;9383;50.928;12.116;2023-03-25T03:13:45;97684.44;;;8.42;100.00
18509;BME280;9383;50.928;12.116;2023-03-25T03:21:38;97685.00;;;8.49;100.00
18509;BME280;9383;50.928;12.116;2023-03-25T03:24:14;97684.97;;;8.50;100.00
18509;BME280;9383;50.928;12.116;2023-03-25T03:26:52;97691.97;;;8.51;100.00
18509;BME280;9383;50.928;12.116;2023-03-25T03:29:56;97683.13;;;8.52;100.00
18509;BME280;9383;50.928;12.116;2023-03-25T03:32:21;97683.13;;;8.52;100.00
18509;BME280;9383;50.928;12.116;2023-03-25T03:34:58;97677.78;;;8.54;100.00
18509;BME280;9383;50.928;12.116;2023-03-25T03:37:34;97676.84;;;8.55;100.00
18509;BME280;9383;50.928;12.116;2023-03-25T03:40:04;97685.69;;;8.54;100.00
18509;BME280;9383;50.928;12.116;2023-03-25T03:42:41;97691.88;;;8.53;100.00
18509;BME280;9383;50.928;12.116;2023-03-25T03:45:17;97689.31;;;8.51;100.00
18509;BME280;9383;50.928;12.116;2023-03-25T03:47:48;97690.09;;;8.53;100.00
18509;BME280;9383;50.928;12.116;2023-03-25T03:50:22;97687.47;;;8.53;100.00
18509;BME280;9383;50.928;12.116;2023-03-25T03:52:59;97690.97;;;8.54;100.00
18509;BME280;9383;50.928;12.116;2023-03-25T03:55:34;97695.38;;;8.53;99.89
18509;BME280;9383;50.928;12.116;2023-03-25T03:58:11;97693.69;;;8.52;99.32
18509;BME280;9383;50.928;12.116;2023-03-25T04:00:52;97693.63;;;8.54;98.38
18509;BME280;9383;50.928;12.116;2023-03-25T04:03:32;97705.91;;;8.55;98.55
18509;BME280;9383;50.928;12.116;2023-03-25T04:11:32;97706.72;;;8.55;97.43
18509;BME280;9383;50.928;12.116;2023-03-25T04:14:02;97705.91;;;8.55;97.50
18509;BME280;9383;50.928;12.116;2023-03-25T04:16:29;97700.81;;;8.50;96.03
18509;BME280;9383;50.928;12.116;2023-03-25T04:18:57;97712.34;;;8.48;95.44
18509;BME280;9383;50.928;12.116;2023-03-25T04:21:24;97710.78;;;8.43;94.26
18509;BME280;9383;50.928;12.116;2023-03-25T04:23:50;97710.06;;;8.40;93.96
18509;BME280;9383;50.928;12.116;2023-03-25T04:26:17;97717.06;;;8.41;93.84
18509;BME280;9383;50.928;12.116;2023-03-25T04:28:44;97714.56;;;8.38;93.14
18509;BME280;9383;50.928;12.116;2023-03-25T04:31:13;97714.72;;;8.35;91.29
18509;BME280;9383;50.928;12.116;2023-03-25T04:33:42;97725.38;;;8.31;91.08
18509;BME280;9383;50.928;12.116;2023-03-25T04:36:13;97735.16;;;8.29;91.24
18509;BME280;9383;50.928;12.116;2023-03-25T04:38:40;97741.44;;;8.27;90.82
18509;BME280;9383;50.928;12.116;2023-03-25T04:41:11;97743.44;;;8.22;89.09
18509;BME280;9383;50.928;12.116;2023-03-25T04:43:39;97744.56;;;8.16;87.98
18509;BME280;9383;50.928;12.116;2023-03-25T04:46:07;97743.63;;;8.17;88.83
18509;BME280;9383;50.928;12.116;2023-03-25T04:48:36;97757.13;;;8.11;88.09
18509;BME280;9383;50.928;12.116;2023-03-25T04:51:07;97754.69;;;8.06;86.90
18509;BME280;9383;50.928;12.116;2023-03-25T04:53:35;97754.25;;;7.96;86.25
18509;BME280;9383;50.928;12.116;2023-03-25T04:56:02;97757.06;;;7.92;86.04
18509;BME280;9383;50.928;12.116;2023-03-25T04:58:30;97763.31;;;7.89;86.28
18509;BME280;9383;50.928;12.116;2023-03-25T05:00:58;97762.59;;;7.85;86.52
18509;BME280;9383;50.928;12.116;2023-03-25T05:03:32;97760.16;;;7.81;86.48
18509;BME280;9383;50.928;12.116;2023-03-25T05:05:58;97767.47;;;7.74;86.08
18509;BME280;9383;50.928;12.116;2023-03-25T05:08:25;97756.28;;;7.69;86.46
18509;BME280;9383;50.928;12.116;2023-03-25T05:10:52;97760.03;;;7.63;87.02
18509;BME280;9383;50.928;12.116;2023-03-25T05:13:19;97758.38;;;7.60;87.47
18509;BME280;9383;50.928;12.116;2023-03-25T05:15:47;97766.56;;;7.54;87.60
18509;BME280;9383;50.928;12.116;2023-03-25T05:18:15;97765.03;;;7.49;87.54
18509;BME280;9383;50.928;12.116;2023-03-25T05:20:44;97765.03;;;7.49;87.79
18509;BME280;9383;50.928;12.116;2023-03-25T05:23:12;97768.63;;;7.46;88.07
18509;BME280;9383;50.928;12.116;2023-03-25T05:25:47;97764.34;;;7.43;88.20
18509;BME280;9383;50.928;12.116;2023-03-25T05:28:15;97769.75;;;7.40;88.10
18509;BME280;9383;50.928;12.116;2023-03-25T05:30:43;97767.38;;;7.34;88.04
18509;BME280;9383;50.928;12.116;2023-03-25T05:33:12;97767.44;;;7.32;88.44
18509;BME280;9383;50.928;12.116;2023-03-25T05:35:41;97771.97;;;7.29;88.66
18509;BME280;9383;50.928;12.116;2023-03-25T05:38:08;97780.66;;;7.31;88.92
18509;BME280;9383;50.928;12.116;2023-03-25T05:40:38;97768.41;;;7.30;89.31
18509;BME280;9383;50.928;12.116;2023-03-25T05:43:05;97774.66;;;7.27;89.95
18509;BME280;9383;50.928;12.116;2023-03-25T05:45:32;97774.66;;;7.27;90.27
18509;BME280;9383;50.928;12.116;2023-03-25T05:48:01;97771.16;;;7.27;89.78
18509;BME280;9383;50.928;12.116;2023-03-25T05:50:28;97771.03;;;7.30;90.03
18509;BME280;9383;50.928;12.116;2023-03-25T05:52:55;97764.78;;;7.32;90.20
18509;BME280;9383;50.928;12.116;2023-03-25T05:55:22;97770.97;;;7.31;90.25
18509;BME280;9383;50.928;12.116;2023-03-25T05:57:49;97781.44;;;7.33;90.44
18509;BME280;9383;50.928;12.116;2023-03-25T06:00:18;97774.34;;;7.35;89.91
18509;BME280;9383;50.928;12.116;2023-03-25T06:02:45;97778.75;;;7.35;89.98
18509;BME280;9383;50.928;12.116;2023-03-25T06:05:15;97779.63;;;7.35;89.89
18509;BME280;9383;50.928;12.116;2023-03-25T06:07:43;97783.97;;;7.36;90.14
18509;BME280;9383;50.928;12.116;2023-03-25T06:10:12;97790.03;;;7.38;90.39
18509;BME280;9383;50.928;12.116;2023-03-25T06:12:43;97789.16;;;7.38;89.55
18509;BME280;9383;50.928;12.116;2023-03-25T06:15:12;97787.34;;;7.40;90.04
18509;BME280;9383;50.928;12.116;2023-03-25T06:17:40;97780.25;;;7.42;90.20
18509;BME280;9383;50.928;12.116;2023-03-25T06:20:10;97782.00;;;7.41;90.59
18509;BME280;9383;50.928;12.116;2023-03-25T06:22:39;97782.88;;;7.42;90.56
18509;BME280;9383;50.928;12.116;2023-03-25T06:25:09;97795.97;;;7.43;90.48
18509;BME280;9383;50.928;12.116;2023-03-25T06:27:37;97788.94;;;7.44;90.73
18509;BME280;9383;50.928;12.116;2023-03-25T06:30:09;97796.75;;;7.45;91.68
18509;BME280;9383;50.928;12.116;2023-03-25T06:32:37;97795.00;;;7.46;91.79
18509;BME280;9383;50.928;12.116;2023-03-25T06:35:08;97796.66;;;7.49;91.60
18509;BME280;9383;50.928;12.116;2023-03-25T06:37:35;97804.44;;;7.52;92.23
18509;BME280;9383;50.928;12.116;2023-03-25T06:40:02;97803.38;;;7.56;92.59
18509;BME280;9383;50.928;12.116;2023-03-25T06:42:30;97799.78;;;7.58;92.95
18509;BME280;9383;50.928;12.116;2023-03-25T06:44:57;97809.53;;;7.56;93.26
18509;BME280;9383;50.928;12.116;2023-03-25T06:47:24;97805.91;;;7.59;92.93
18509;BME280;9383;50.928;12.116;2023-03-25T06:49:51;97807.63;;;7.60;94.03
18509;BME280;9383;50.928;12.116;2023-03-25T06:52:17;97805.09;;;7.57;94.73
18509;BME280;9383;50.928;12.116;2023-03-25T06:54:44;97809.41;;;7.59;94.40
18509;BME280;9383;50.928;12.116;2023-03-25T06:57:15;97803.47;;;7.54;95.54
18509;BME280;9383;50.928;12.116;2023-03-25T06:59:42;97802.47;;;7.57;95.63
18509;BME280;9383;50.928;12.116;2023-03-25T07:02:12;97809.41;;;7.59;95.72
18509;BME280;9383;50.928;12.116;2023-03-25T07:04:39;97819.91;;;7.61;96.09
18509;BME280;9383;50.928;12.116;2023-03-25T07:07:06;97826.00;;;7.62;96.49
18509;BME280;9383;50.928;12.116;2023-03-25T07:09:33;97813.84;;;7.59;97.52
18509;BME280;9383;50.928;12.116;2023-03-25T07:12:01;97813.75;;;7.60;98.21
18509;BME280;9383;50.928;12.116;2023-03-25T07:14:27;97819.03;;;7.60;98.89
18509;BME280;9383;50.928;12.116;2023-03-25T07:16:56;97826.88;;;7.62;98.80
18509;BME280;9383;50.928;12.116;2023-03-25T07:19:23;97825.97;;;7.63;99.22
18509;BME280;9383;50.928;12.116;2023-03-25T07:21:49;97827.66;;;7.64;98.86
18509;BME280;9383;50.928;12.116;2023-03-25T07:24:16;97823.31;;;7.63;99.40
18509;BME280;9383;50.928;12.116;2023-03-25T07:26:42;97826.00;;;7.62;100.00
18509;BME280;9383;50.928;12.116;2023-03-25T07:29:09;97830.34;;;7.63;100.00
18509;BME280;9383;50.928;12.116;2023-03-25T07:31:35;97826.16;;;7.58;100.00
18509;BME280;9383;50.928;12.116;2023-03-25T07:34:02;97828.00;;;7.56;100.00
18509;BME280;9383;50.928;12.116;2023-03-25T07:36:29;97827.91;;;7.58;100.00
18509;BME280;9383;50.928;12.116;2023-03-25T07:38:56;97828.97;;;7.54;100.00
18509;BME280;9383;50.928;12.116;2023-03-25T07:41:22;97832.28;;;7.59;100.00
18509;BME280;9383;50.928;12.116;2023-03-25T07:43:49;97834.84;;;7.60;100.00
18509;BME280;9383;50.928;12.116;2023-03-25T07:46:16;97827.91;;;7.58;100.00
18509;BME280;9383;50.928;12.116;2023-03-25T07:48:45;97830.81;;;7.52;100.00
18509;BME280;9383;50.928;12.116;2023-03-25T07:51:12;97828.00;;;7.56;100.00
18509;BME280;9383;50.928;12.116;2023-03-25T07:53:38;97828.91;;;7.55;100.00
18509;BME280;9383;50.928;12.116;2023-03-25T07:56:09;97839.38;;;7.57;100.00
18509;BME280;9383;50.928;12.116;2023-03-25T07:58:36;97843.72;;;7.58;100.00
18509;BME280;9383;50.928;12.116;2023-03-25T08:01:03;97834.19;;;7.55;100.00
18509;BME280;9383;50.928;12.116;2023-03-25T08:03:30;97838.72;;;7.52;100.00
18509;BME280;9383;50.928;12.116;2023-03-25T08:06:00;97833.31;;;7.55;100.00
18509;BME280;9383;50.928;12.116;2023-03-25T08:08:27;97845.72;;;7.53;100.00
18509;BME280;9383;50.928;12.116;2023-03-25T08:10:57;97846.50;;;7.55;100.00
18509;BME280;9383;50.928;12.116;2023-03-25T08:13:24;97847.28;;;7.57;100.00
18509;BME280;9383;50.928;12.116;2023-03-25T08:15:51;97849.81;;;7.60;100.00
18509;BME280;9383;50.928;12.116;2023-03-25T08:18:18;97840.72;;;7.67;100.00
18509;BME280;9383;50.928;12.116;2023-03-25T08:20:44;97836.38;;;7.66;100.00
18509;BME280;9383;50.928;12.116;2023-03-25T08:23:11;97841.28;;;7.76;100.00
18509;BME280;9383;50.928;12.116;2023-03-25T08:25:39;97839.06;;;7.87;100.00
18509;BME280;9383;50.928;12.116;2023-03-25T08:28:06;97822.56;;;8.02;100.00
18509;BME280;9383;50.928;12.116;2023-03-25T08:30:34;97828.09;;;8.17;100.00
18509;BME280;9383;50.928;12.116;2023-03-25T08:33:07;97825.81;;;8.30;100.00
18509;BME280;9383;50.928;12.116;2023-03-25T08:35:36;97830.34;;;8.47;100.00
18509;BME280;9383;50.928;12.116;2023-03-25T08:38:04;97826.25;;;8.61;100.00
18509;BME280;9383;50.928;12.116;2023-03-25T08:40:33;97828.06;;;8.79;100.00
18509;BME280;9383;50.928;12.116;2023-03-25T08:43:02;97824.63;;;8.96;100.00
18509;BME280;9383;50.928;12.116;2023-03-25T08:45:29;97818.78;;;9.09;100.00
18509;BME280;9383;50.928;12.116;2023-03-25T08:47:58;97830.69;;;9.18;100.00
18509;BME280;9383;50.928;12.116;2023-03-25T08:50:26;97825.03;;;9.25;100.00
18509;BME280;9383;50.928;12.116;2023-03-25T08:52:52;97826.47;;;9.33;98.70
18509;BME280;9383;50.928;12.116;2023-03-25T08:55:23;97824.09;;;9.26;94.01
18509;BME280;9383;50.928;12.116;2023-03-25T08:57:50;97833.53;;;9.32;93.21
18509;BME280;9383;50.928;12.116;2023-03-25T09:00:16;97819.94;;;9.40;91.26
18509;BME280;9383;50.928;12.116;2023-03-25T09:02:49;97823.63;;;9.55;92.41
18509;BME280;9383;50.928;12.116;2023-03-25T09:05:15;97813.31;;;9.68;91.58
18509;BME280;9383;50.928;12.116;2023-03-25T09:07:42;97835.38;;;9.86;92.16
18509;BME280;9383;50.928;12.116;2023-03-25T09:10:09;97831.94;;;10.02;86.43
18509;BME280;9383;50.928;12.116;2023-03-25T09:12:35;97821.41;;;10.00;81.94
18509;BME280;9383;50.928;12.116;2023-03-25T09:15:02;97832.50;;;10.08;82.26
18509;BME280;9383;50.928;12.116;2023-03-25T09:17:28;97835.44;;;10.02;79.26
18509;BME280;9383;50.928;12.116;2023-03-25T09:19:55;97836.38;;;10.01;79.58
18509;BME280;9383;50.928;12.116;2023-03-25T09:22:22;97830.13;;;10.02;80.21
18509;BME280;9383;50.928;12.116;2023-03-25T09:24:48;97834.19;;;9.92;77.97
18509;BME280;9383;50.928;12.116;2023-03-25T09:27:15;97838.31;;;9.97;79.82
18509;BME280;9383;50.928;12.116;2023-03-25T09:29:41;97841.66;;;10.01;80.83
18509;BME280;9383;50.928;12.116;2023-03-25T09:32:08;97850.38;;;10.03;80.06
18509;BME280;9383;50.928;12.116;2023-03-25T09:34:35;97844.25;;;10.03;79.69
18509;BME280;9383;50.928;12.116;2023-03-25T09:37:03;97848.66;;;10.02;78.71
18509;BME280;9383;50.928;12.116;2023-03-25T09:39:29;97857.78;;;9.96;78.91
18509;BME280;9383;50.928;12.116;2023-03-25T09:42:36;97858.09;;;9.90;79.19
18509;BME280;9383;50.928;12.116;2023-03-25T09:45:24;97847.66;;;9.87;80.21
18509;BME280;9383;50.928;12.116;2023-03-25T09:50:29;97844.88;;;9.90;82.12
18509;BME280;9383;50.928;12.116;2023-03-25T09:55:57;97831.84;;;10.21;81.41
18509;BME280;9383;50.928;12.116;2023-03-25T10:01:18;97835.50;;;10.53;79.31
18509;BME280;9383;50.928;12.116;2023-03-25T10:06:56;97830.31;;;10.68;75.01
18509;BME280;9383;50.928;12.116;2023-03-25T10:09:43;97834.72;;;10.85;74.77
18509;BME280;9383;50.928;12.116;2023-03-25T10:12:31;97826.53;;;11.06;74.55
18509;BME280;9383;50.928;12.116;2023-03-25T10:20:20;97832.53;;;11.25;68.82
18509;BME280;9383;50.928;12.116;2023-03-25T10:23:04;97839.63;;;11.09;66.29
18509;BME280;9383;50.928;12.116;2023-03-25T10:25:35;97831.31;;;10.99;65.79
18509;BME280;9383;50.928;12.116;2023-03-25T10:28:05;97823.53;;;10.96;65.55
18509;BME280;9383;50.928;12.116;2023-03-25T10:30:38;97819.63;;;11.03;66.93
18509;BME280;9383;50.928;12.116;2023-03-25T10:33:34;97826.38;;;11.25;68.85
18509;BME280;9383;50.928;12.116;2023-03-25T10:36:02;97823.63;;;11.43;68.45
18509;BME280;9383;50.928;12.116;2023-03-25T10:38:33;97803.59;;;11.53;65.78
18509;BME280;9383;50.928;12.116;2023-03-25T10:41:15;97738.59;;;11.14;64.15
18509;BME280;9383;50.928;12.116;2023-03-25T10:43:45;97811.69;;;11.66;66.49
18509;BME280;9383;50.928;12.116;2023-03-25T10:46:29;97798.75;;;11.76;66.09
18509;BME280;9383;50.928;12.116;2023-03-25T10:48:57;97812.16;;;11.89;64.50
18509;BME280;9383;50.928;12.116;2023-03-25T10:51:28;97804.38;;;11.86;64.39
18509;BME280;9383;50.928;12.116;2023-03-25T10:53:55;97808.75;;;11.87;64.03
18509;BME280;9383;50.928;12.116;2023-03-25T10:56:33;97806.56;;;11.93;64.27
18509;BME280;9383;50.928;12.116;2023-03-25T10:59:32;97817.47;;;12.05;65.87
18509;BME280;9383;50.928;12.116;2023-03-25T11:02:11;97810.81;;;12.12;64.88
18509;BME280;9383;50.928;12.116;2023-03-25T11:04:41;97819.38;;;12.17;63.10
18509;BME280;9383;50.928;12.116;2023-03-25T11:07:28;97810.00;;;12.26;63.87
18509;BME280;9383;50.928;12.116;2023-03-25T11:12:41;97805.81;;;12.22;62.12
18509;BME280;9383;50.928;12.116;2023-03-25T11:15:17;97812.72;;;12.10;62.10
18509;BME280;9383;50.928;12.116;2023-03-25T11:17:46;97800.31;;;12.10;64.06
18509;BME280;9383;50.928;12.116;2023-03-25T11:20:25;97800.56;;;12.06;60.24
18509;BME280;9383;50.928;12.116;2023-03-25T11:22:53;97805.16;;;12.18;61.89
18509;BME280;9383;50.928;12.116;2023-03-25T11:25:28;97789.88;;;12.22;60.37
18509;BME280;9383;50.928;12.116;2023-03-25T11:27:58;97787.13;;;12.23;61.16
18509;BME280;9383;50.928;12.116;2023-03-25T11:30:27;97785.81;;;12.31;59.34
18509;BME280;9383;50.928;12.116;2023-03-25T11:33:04;97794.94;;;12.41;59.13
18509;BME280;9383;50.928;12.116;2023-03-25T11:35:37;97792.22;;;12.12;56.75
18509;BME280;9383;50.928;12.116;2023-03-25T11:38:15;97779.63;;;12.16;57.53
18509;BME280;9383;50.928;12.116;2023-03-25T11:40:51;97797.25;;;12.17;57.75
18509;BME280;9383;50.928;12.116;2023-03-25T11:43:23;97786.63;;;12.17;56.95
18509;BME280;9383;50.928;12.116;2023-03-25T11:45:51;97779.88;;;12.11;58.80
18509;BME280;9383;50.928;12.116;2023-03-25T11:48:23;97769.19;;;12.13;56.52
18509;BME280;9383;50.928;12.116;2023-03-25T11:50:56;97775.06;;;12.18;57.44
18509;BME280;9383;50.928;12.116;2023-03-25T11:53:26;97781.50;;;12.14;56.21
18509;BME280;9383;50.928;12.116;2023-03-25T11:56:13;97770.22;;;12.10;56.96
18509;BME280;9383;50.928;12.116;2023-03-25T11:58:40;97758.41;;;12.00;57.33
18509;BME280;9383;50.928;12.116;2023-03-25T12:01:21;97763.47;;;12.04;58.29
18509;BME280;9383;50.928;12.116;2023-03-25T12:03:49;97761.28;;;11.80;58.83
18509;BME280;9383;50.928;12.116;2023-03-25T12:06:19;97753.22;;;11.67;60.40
18509;BME280;9383;50.928;12.116;2023-03-25T12:08:57;97751.78;;;11.62;61.70
18509;BME280;9383;50.928;12.116;2023-03-25T12:11:42;97752.72;;;11.61;61.85
18509;BME280;9383;50.928;12.116;2023-03-25T12:14:28;97744.66;;;11.62;61.83
18509;BME280;9383;50.928;12.116;2023-03-25T12:17:34;97688.75;;;11.35;62.07
18509;BME280;9383;50.928;12.116;2023-03-25T12:22:51;97737.72;;;11.90;61.44
18509;BME280;9383;50.928;12.116;2023-03-25T12:25:45;97732.78;;;11.99;62.65
18509;BME280;9383;50.928;12.116;2023-03-25T12:28:34;97721.09;;;12.17;62.07
18509;BME280;9383;50.928;12.116;2023-03-25T12:31:30;97720.41;;;12.28;60.22
18509;BME280;9383;50.928;12.116;2023-03-25T12:35:03;97720.69;;;12.23;59.68
18509;BME280;9383;50.928;12.116;2023-03-25T12:40:10;97715.66;;;12.19;59.21
18509;BME280;9383;50.928;12.116;2023-03-25T12:43:03;97713.94;;;12.03;58.26
18509;BME280;9383;50.928;12.116;2023-03-25T12:45:42;97721.22;;;12.00;59.81
18509;BME280;9383;50.928;12.116;2023-03-25T12:48:33;97707.75;;;11.88;60.13
18509;BME280;9383;50.928;12.116;2023-03-25T12:51:15;97704.31;;;11.86;58.68
18509;BME280;9383;50.928;12.116;2023-03-25T12:54:01;97695.03;;;11.93;60.25
18509;BME280;9383;50.928;12.116;2023-03-25T12:59:50;97781.50;;;11.83;61.84
18509;BME280;9383;50.928;12.116;2023-03-25T13:02:46;97781.41;;;11.54;64.61
18509;BME280;9383;50.928;12.116;2023-03-25T13:05:25;97790.28;;;11.22;67.62
18509;BME280;9383;50.928;12.116;2023-03-25T13:08:22;97795.31;;;10.95;69.48
18509;BME280;9383;50.928;12.116;2023-03-25T13:11:00;97774.69;;;10.84;70.20
18509;BME280;9383;50.928;12.116;2023-03-25T13:13:29;97786.47;;;10.62;72.00
18509;BME280;9383;50.928;12.116;2023-03-25T13:16:15;97794.06;;;10.52;72.53
18509;BME280;9383;50.928;12.116;2023-03-25T13:18:52;97789.78;;;10.32;74.53
18509;BME280;9383;50.928;12.116;2023-03-25T13:21:27;97807.31;;;10.17;74.47
18509;BME280;9383;50.928;12.116;2023-03-25T13:24:05;97791.34;;;10.01;74.79
18509;BME280;9383;50.928;12.116;2023-03-25T13:26:35;97787.25;;;9.78;75.30
18509;BME280;9383;50.928;12.116;2023-03-25T13:29:30;97788.53;;;9.51;76.39
18509;BME280;9383;50.928;12.116;2023-03-25T13:32:05;97785.78;;;9.35;76.86
18509;BME280;9383;50.928;12.116;2023-03-25T13:34:50;97779.75;;;9.14;77.02
18509;BME280;9383;50.928;12.116;2023-03-25T13:37:30;97766.75;;;9.09;76.92
18509;BME280;9383;50.928;12.116;2023-03-25T13:42:50;97776.50;;;8.90;78.99
18509;BME280;9383;50.928;12.116;2023-03-25T13:45:22;97778.47;;;8.84;80.45
18509;BME280;9383;50.928;12.116;2023-03-25T13:48:21;97779.28;;;8.86;80.47
18509;BME280;9383;50.928;12.116;2023-03-25T13:50:52;97781.56;;;8.75;80.91
18509;BME280;9383;50.928;12.116;2023-03-25T13:53:35;97770.69;;;8.62;82.46
18509;BME280;9383;50.928;12.116;2023-03-25T14:01:33;97777.78;;;8.62;84.41
18509;BME280;9383;50.928;12.116;2023-03-25T14:12:43;97764.78;;;8.76;84.97
18509;BME280;9383;50.928;12.116;2023-03-25T14:15:17;97777.59;;;8.85;83.96
18509;BME280;9383;50.928;12.116;2023-03-25T14:17:46;97773.84;;;8.90;83.81
18509;BME280;9383;50.928;12.116;2023-03-25T14:20:20;97776.84;;;8.82;83.04
18509;BME280;9383;50.928;12.116;2023-03-25T14:22:54;97777.44;;;8.89;83.66
18509;BME280;9383;50.928;12.116;2023-03-25T14:25:37;97762.03;;;8.97;84.25
18509;BME280;9383;50.928;12.116;2023-03-25T14:28:06;97769.06;;;8.98;82.16
18509;BME280;9383;50.928;12.116;2023-03-25T14:30:34;97761.78;;;9.03;80.96
18509;BME280;9383;50.928;12.116;2023-03-25T14:33:01;97762.69;;;9.02;78.32
18509;BME280;9383;50.928;12.116;2023-03-25T14:43:33;97758.88;;;9.27;74.68
18509;BME280;9383;50.928;12.116;2023-03-25T14:48:36;97760.91;;;9.39;73.19
18509;BME280;9383;50.928;12.116;2023-03-25T14:56:24;97756.41;;;9.59;72.00